Aviation Digital Data Service (ADDS)

Output produced by METARs form (0346 UTC 19 July 2018)
found at http://www.aviationweather.gov/adds/metars/
 
METAR text: KMYF 190253Z 20006KT 10SM CLR 21/17 A2998 RMK AO2 SLP148 T02110167 53004
Conditions at: KMYF (SAN DIEGO/MNTGMY, CA, US) observed 0253 UTC 19 July 2018
Temperature: 21.1°C (70°F)
Dewpoint: 16.7°C (62°F) [RH = 76%]
Pressure (altimeter): 29.98 inches Hg (1015.3 mb)
[Sea-level pressure: 1014.8 mb]
Winds: from the SSW (200 degrees) at 7 MPH (6 knots; 3.1 m/s)
Visibility: 10 or more miles (16+ km)
Ceiling: at least 12,000 feet AGL
Clouds: sky clear below 12,000 feet AGL
Weather: no significant weather observed at this time

METAR text: KMYF 190153Z 21006KT 10SM CLR 22/17 A2997 RMK AO2 SLP145 T02170167
Conditions at: KMYF (SAN DIEGO/MNTGMY, CA, US) observed 0153 UTC 19 July 2018
Temperature: 21.7°C (71°F)
Dewpoint: 16.7°C (62°F) [RH = 73%]
Pressure (altimeter): 29.97 inches Hg (1015.0 mb)
[Sea-level pressure: 1014.5 mb]
Winds: from the SSW (210 degrees) at 7 MPH (6 knots; 3.1 m/s)
Visibility: 10 or more miles (16+ km)
Ceiling: at least 12,000 feet AGL
Clouds: sky clear below 12,000 feet AGL
Weather: no significant weather observed at this time

METAR text: KMYF 190053Z 24008KT 10SM SCT018 22/17 A2996 RMK AO2 SLP143 T02170167
Conditions at: KMYF (SAN DIEGO/MNTGMY, CA, US) observed 0053 UTC 19 July 2018
Temperature: 21.7°C (71°F)
Dewpoint: 16.7°C (62°F) [RH = 73%]
Pressure (altimeter): 29.96 inches Hg (1014.6 mb)
[Sea-level pressure: 1014.3 mb]
Winds: from the WSW (240 degrees) at 9 MPH (8 knots; 4.2 m/s)
Visibility: 10 or more miles (16+ km)
Ceiling: at least 12,000 feet AGL
Clouds: scattered clouds at 1800 feet AGL
Weather: no significant weather observed at this time

METAR text: KMYF 182353Z 27008KT 10SM FEW015 23/17 A2997 RMK AO2 SLP143 T02330172 10256 20228 56009
Conditions at: KMYF (SAN DIEGO/MNTGMY, CA, US) observed 2353 UTC 18 July 2018
Temperature: 23.3°C (74°F)
Dewpoint: 17.2°C (63°F) [RH = 69%]
Pressure (altimeter): 29.97 inches Hg (1015.0 mb)
[Sea-level pressure: 1014.3 mb]
Winds: from the W (270 degrees) at 9 MPH (8 knots; 4.2 m/s)
Visibility: 10 or more miles (16+ km)
Ceiling: at least 12,000 feet AGL
Clouds: few clouds at 1500 feet AGL
Weather: no significant weather observed at this time

METAR text: KMYF 182253Z 22008KT 10SM CLR 23/17 A2998 RMK AO2 SLP147 T02280172
Conditions at: KMYF (SAN DIEGO/MNTGMY, CA, US) observed 2253 UTC 18 July 2018
Temperature: 22.8°C (73°F)
Dewpoint: 17.2°C (63°F) [RH = 71%]
Pressure (altimeter): 29.98 inches Hg (1015.3 mb)
[Sea-level pressure: 1014.7 mb]
Winds: from the SW (220 degrees) at 9 MPH (8 knots; 4.2 m/s)
Visibility: 10 or more miles (16+ km)
Ceiling: at least 12,000 feet AGL
Clouds: sky clear below 12,000 feet AGL
Weather: no significant weather observed at this time

METAR text: KMYF 182153Z AUTO 27009KT 10SM CLR 25/17 A2998 RMK AO2 SLP148 T02500172
Conditions at: KMYF (SAN DIEGO/MNTGMY, CA, US) observed 2153 UTC 18 July 2018
Temperature: 25.0°C (77°F)
Dewpoint: 17.2°C (63°F) [RH = 62%]
Pressure (altimeter): 29.98 inches Hg (1015.3 mb)
[Sea-level pressure: 1014.8 mb]
Winds: from the W (270 degrees) at 10 MPH (9 knots; 4.7 m/s)
Visibility: 10 or more miles (16+ km)
Ceiling: at least 12,000 feet AGL
Clouds: sky clear below 12,000 feet AGL
Weather: automated observation with no human augmentation;
there may or may not be significant weather present at this time

METAR text: KMYF 182053Z 27009KT 10SM CLR 24/17 A3000 RMK AO2 SLP153 T02390172 58008
Conditions at: KMYF (SAN DIEGO/MNTGMY, CA, US) observed 2053 UTC 18 July 2018
Temperature: 23.9°C (75°F)
Dewpoint: 17.2°C (63°F) [RH = 66%]
Pressure (altimeter): 30.00 inches Hg (1016.0 mb)
[Sea-level pressure: 1015.3 mb]
Winds: from the W (270 degrees) at 10 MPH (9 knots; 4.7 m/s)
Visibility: 10 or more miles (16+ km)
Ceiling: at least 12,000 feet AGL
Clouds: sky clear below 12,000 feet AGL
Weather: no significant weather observed at this time

METAR text: KMYF 181953Z 26009KT 10SM CLR 24/17 A3001 RMK AO2 SLP158 T02440167
Conditions at: KMYF (SAN DIEGO/MNTGMY, CA, US) observed 1953 UTC 18 July 2018
Temperature: 24.4°C (76°F)
Dewpoint: 16.7°C (62°F) [RH = 62%]
Pressure (altimeter): 30.01 inches Hg (1016.3 mb)
[Sea-level pressure: 1015.8 mb]
Winds: from the W (260 degrees) at 10 MPH (9 knots; 4.7 m/s)
Visibility: 10 or more miles (16+ km)
Ceiling: at least 12,000 feet AGL
Clouds: sky clear below 12,000 feet AGL
Weather: no significant weather observed at this time